Last 48 Hours

Top Stn/Summit - 11,053ft

15 Minute Data | America/Los_Angeles
as of 9/4/26 1:36 AM PDT
Date & Time Temp (°F) WindChill (°F) RH (%) Dew Pt (°F) Wet Bulb (°F) Wind Dir (°) Wind Spd (mph) Wind Gust (mph) Wind Gst Dir (°) Daily Min Temp (°F) Daily Max Temp (°F) Daily Max Wind (mph)
9/4/26 - 0130 31.5 15.1 100 31.5 31.4 SW | 223 35.1 44.8 SW | 223 31.3 31.6 46.3
9/4/26 - 0115 31.4 15.0 100 31.4 31.4 SW | 221 33.8 46.3 SW | 224 31.3 31.6 46.3
9/4/26 - 0100 31.4 14.9 100 31.4 31.4 SW | 223 35.9 46.0 SW | 224 29.6 43.1 56.9
9/4/26 - 0045 31.5 15.0 100 31.5 31.4 SW | 223 34.9 46.2 WSW | 237 29.6 43.1 56.9
9/4/26 - 0030 31.4 15.0 100 31.4 31.3 SW | 221 33.9 45.7 SW | 227 29.6 43.1 56.9
9/4/26 - 0015 31.4 14.9 100 31.4 31.4 SW | 223 35.5 46.1 SW | 227 29.6 43.1 56.9
9/4/26 - 0000 31.5 14.9 100 31.5 31.4 SW | 224 37.2 46.0 SW | 229 29.6 43.1 56.9
9/3/26 - 2345 31.7 15.0 100 31.7 31.6 SW | 221 37.5 47.7 SW | 223 29.6 43.1 56.9
9/3/26 - 2330 31.6 15.0 100 31.6 31.6 SW | 221 36.2 47.6 SSW | 210 29.6 43.1 56.9
9/3/26 - 2315 31.8 15.3 100 31.8 31.7 SW | 221 33.6 48.3 SSW | 210 29.6 43.1 56.9
9/3/26 - 2300 31.5 14.9 100 31.5 31.5 SW | 220 35.7 47.7 SW | 227 29.6 43.1 56.9
9/3/26 - 2245 31.8 15.6 100 31.8 31.7 SW | 222 33.9 44.7 SW | 234 29.6 43.1 56.9
9/3/26 - 2230 32.3 16.3 100 32.3 32.2 SW | 220 33.4 45.5 WSW | 240 29.6 43.1 56.9
9/3/26 - 2215 32.7 16.9 100 32.7 32.6 SW | 220 33.4 44.4 SW | 219 29.6 43.1 56.9
9/3/26 - 2200 32.8 17.2 100 32.8 32.8 SW | 222 34.0 43.0 SW | 220 29.6 43.1 56.9
9/3/26 - 2145 32.9 17.4 100 32.9 32.9 SW | 222 32.7 43.4 SW | 218 29.6 43.1 56.9
9/3/26 - 2130 33.0 17.5 100 33.0 33.0 SW | 224 32.7 44.0 SW | 216 29.6 43.1 56.9
9/3/26 - 2115 33.2 17.7 100 33.2 33.2 SW | 223 33.5 44.7 SW | 225 29.6 43.1 56.9
9/3/26 - 2100 33.2 17.5 100 33.2 33.1 SW | 223 34.2 44.5 SW | 218 29.6 43.1 56.9
9/3/26 - 2045 33.3 17.8 100 33.3 33.3 SW | 224 34.4 44.2 SW | 220 29.6 43.1 56.9
9/3/26 - 2030 33.5 17.8 100 33.5 33.5 SW | 224 35.3 45.4 SW | 220 29.6 43.1 56.9
9/3/26 - 2015 33.6 17.7 100 33.5 33.5 SSW | 212 36.7 46.8 SSW | 198 29.6 43.1 56.9
9/3/26 - 2000 33.5 17.6 100 33.5 33.5 SSW | 204 36.5 47.8 SSW | 211 29.6 43.1 56.9
9/3/26 - 1945 33.7 17.8 99 33.5 33.6 SSE | 155 36.6 47.9 SSW | 198 29.6 43.1 56.9
9/3/26 - 1930 34.0 18.4 98 33.6 33.8 N | 5 35.2 48.0 N | 0 29.6 43.1 56.9
9/3/26 - 1915 34.6 19.5 98 34.0 34.4 N | 7 34.6 45.1 SW | 231 29.6 43.1 56.9
9/3/26 - 1900 35.0 19.8 97 34.3 34.7 SSW | 202 36.0 47.6 SW | 224 29.6 43.1 56.9
9/3/26 - 1845 35.7 20.4 94 34.2 35.1 SW | 225 37.6 49.5 E | 91 29.6 43.1 56.9
9/3/26 - 1830 36.6 21.9 91 34.2 35.7 SW | 219 36.7 48.8 SSW | 211 29.6 43.1 56.9
9/3/26 - 1815 37.3 22.9 88 34.2 36.1 SW | 219 35.7 48.7 SW | 214 29.6 43.1 56.9
9/3/26 - 1800 37.8 23.6 84 33.6 36.1 SSW | 208 36.7 48.3 SE | 141 29.6 43.1 56.9
9/3/26 - 1745 38.4 24.1 80 32.9 36.2 S | 170 38.6 51.5 ESE | 109 29.6 43.1 56.9
9/3/26 - 1730 39.2 25.2 76 32.3 36.4 SSW | 212 36.8 51.2 N | 0 29.6 43.1 56.9
9/3/26 - 1715 39.7 26.0 71 30.9 36.1 E | 100 37.3 50.7 NNE | 15 29.6 43.1 56.9
9/3/26 - 1700 40.0 26.6 68 30.4 36.1 S | 181 37.1 48.1 N | 3 29.6 43.1 56.9
9/3/26 - 1645 40.1 26.6 68 30.3 36.2 SW | 216 37.0 50.7 SSW | 202 29.6 43.1 56.9
9/3/26 - 1630 40.8 27.4 64 29.7 36.4 SSW | 194 38.8 52.8 SE | 137 29.6 43.1 56.9
9/3/26 - 1615 41.1 28.2 62 29.2 36.3 W | 267 34.5 49.0 NE | 49 29.6 43.1 56.9
9/3/26 - 1600 41.5 28.6 60 28.6 36.4 S | 189 37.1 48.9 WNW | 293 29.6 43.1 56.9
9/3/26 - 1545 42.0 29.4 60 29.0 36.8 SW | 226 35.8 49.0 N | 0 29.6 43.1 56.9
9/3/26 - 1530 42.6 30.4 59 29.2 37.2 SW | 222 34.0 47.3 SSE | 152 29.6 43.1 56.9
9/3/26 - 1515 42.5 30.4 57 28.4 36.9 SW | 225 34.6 46.3 SW | 236 29.6 43.1 56.9
9/3/26 - 1500 42.6 30.6 55 27.6 36.6 SW | 224 32.4 46.4 SW | 222 29.6 43.1 56.9
9/3/26 - 1445 42.8 31.2 54 27.5 36.7 SW | 225 28.7 45.2 SW | 224 29.6 43.1 56.9
9/3/26 - 1430 42.6 30.8 54 27.3 36.6 SW | 228 30.4 45.3 SSW | 212 29.6 43.1 56.9
9/3/26 - 1415 42.5 30.5 54 26.9 36.4 SW | 228 32.2 47.8 SW | 220 29.6 43.1 56.9
9/3/26 - 1400 42.5 30.5 53 26.7 36.3 SW | 226 30.9 47.7 SW | 227 29.6 43.1 56.9
9/3/26 - 1345 42.7 30.8 51 25.6 36.1 SW | 222 32.0 46.2 SSW | 202 29.6 43.1 56.9
9/3/26 - 1330 42.6 30.3 51 25.8 36.1 SW | 222 33.4 50.0 SW | 218 29.6 42.9 56.9
9/3/26 - 1315 42.4 30.3 52 25.8 35.9 SW | 224 33.8 46.0 SW | 225 29.6 42.9 56.9
9/3/26 - 1300 42.4 30.4 51 25.8 36.0 SW | 222 33.6 46.2 SW | 219 29.6 42.9 56.9
9/3/26 - 1245 42.1 29.9 52 25.8 35.8 SW | 222 34.0 45.8 SW | 228 29.6 42.7 56.9
9/3/26 - 1230 42.2 30.0 52 25.7 35.8 SW | 224 33.9 45.7 SW | 228 29.6 42.7 56.9
9/3/26 - 1215 41.4 28.9 52 25.0 35.2 SW | 225 32.0 47.5 SW | 223 29.6 42.1 56.9
9/3/26 - 1200 40.5 27.7 52 24.1 34.4 SW | 225 34.1 45.6 SW | 228 29.6 41.2 56.9
9/3/26 - 1145 40.1 27.2 52 24.1 34.1 SW | 225 34.9 43.9 ESE | 104 29.6 40.4 56.9
9/3/26 - 1130 39.7 26.4 53 24.0 33.8 SW | 227 35.0 45.8 SW | 225 29.6 40.2 56.9
9/3/26 - 1115 39.3 26.0 50 22.2 33.1 SW | 229 35.0 44.5 SW | 227 29.6 39.7 56.9
9/3/26 - 1100 38.7 25.1 48 20.6 32.4 SW | 226 35.6 45.3 SW | 230 29.6 39.1 56.9
9/3/26 - 1045 38.7 24.8 47 20.3 32.3 SW | 226 37.4 48.0 SW | 225 29.6 39.0 56.9
9/3/26 - 1030 38.2 23.9 47 19.8 31.8 SW | 225 38.4 48.1 SW | 224 29.6 38.8 56.9
9/3/26 - 1015 37.5 23.2 48 19.7 31.4 SW | 227 36.2 47.0 SW | 228 29.6 37.7 56.9
9/3/26 - 1000 36.8 22.6 50 19.6 30.9 SW | 227 34.4 44.2 SW | 223 29.6 37.1 56.9
9/3/26 - 0945 36.0 21.6 48 18.4 30.1 SW | 227 33.5 43.5 SW | 222 29.6 36.6 56.9
9/3/26 - 0930 35.4 21.1 50 18.6 29.8 SW | 227 31.6 40.3 SW | 234 29.6 35.7 56.9
9/3/26 - 0915 34.9 20.5 53 19.6 29.7 SW | 227 31.6 39.8 SW | 228 29.6 35.2 56.9
9/3/26 - 0900 34.1 19.7 58 20.8 29.6 SW | 229 29.6 38.6 SW | 230 29.6 34.6 56.9
9/3/26 - 0845 33.6 19.0 58 20.5 29.2 SW | 230 30.6 38.7 SW | 235 29.6 34.2 56.9
9/3/26 - 0830 33.0 18.1 61 21.0 28.9 SW | 230 30.1 40.0 SW | 229 29.6 33.3 56.9
9/3/26 - 0815 32.4 17.5 64 21.4 28.6 SW | 230 29.4 37.0 SW | 224 29.6 33.2 56.9
9/3/26 - 0800 32.0 17.0 65 21.8 28.5 SW | 230 30.1 37.4 SW | 220 29.6 32.5 56.9
9/3/26 - 0745 31.2 15.5 71 22.8 28.3 SW | 229 31.4 39.2 SW | 230 29.6 32.5 56.9
9/3/26 - 0730 30.9 14.6 74 23.5 28.3 SW | 229 33.8 42.3 SW | 227 29.6 32.1 56.9
9/3/26 - 0715 30.6 14.0 73 23.1 28.0 SW | 228 34.6 44.3 SW | 228 29.6 32.1 56.9
9/3/26 - 0700 30.0 12.8 76 23.3 27.6 SW | 228 36.5 44.9 SW | 225 29.6 32.1 56.9
9/3/26 - 0645 29.9 12.6 74 22.6 27.3 SW | 228 37.0 45.8 SW | 221 29.6 32.1 56.9
9/3/26 - 0630 29.9 12.7 73 22.2 27.2 SW | 228 36.7 45.2 SW | 226 29.6 32.1 56.9
9/3/26 - 0615 30.6 13.7 65 20.3 27.2 SW | 228 36.5 45.6 SW | 227 29.6 32.1 56.9
9/3/26 - 0600 30.5 13.8 65 20.2 27.1 SW | 228 35.3 43.5 SW | 226 29.6 32.1 56.9
9/3/26 - 0545 29.7 12.4 74 22.4 27.2 SW | 228 36.7 46.2 SW | 226 29.6 32.1 56.9
9/3/26 - 0530 29.7 12.4 72 21.9 27.1 SW | 226 38.2 45.4 SW | 226 29.6 32.1 56.9
9/3/26 - 0515 29.7 12.1 71 21.4 26.9 SW | 227 39.1 47.4 SW | 227 29.6 32.1 56.9
9/3/26 - 0500 29.9 12.2 69 20.9 26.9 SW | 226 39.6 48.3 SW | 227 29.8 32.1 56.9
9/3/26 - 0445 30.2 12.5 67 20.6 27.0 SW | 226 40.6 48.9 SW | 225 30.0 32.1 56.9
9/3/26 - 0430 30.4 12.7 65 19.9 27.0 N | 359 42.3 50.6 N | 0 30.3 32.1 56.9
9/3/26 - 0415 30.7 13.2 60 18.7 26.8 N | 357 42.0 49.8 N | 0 30.5 32.1 56.9
9/3/26 - 0400 31.0 13.3 58 18.0 26.8 N | 2 43.4 52.4 N | 0 30.9 32.1 56.9
9/3/26 - 0345 31.3 13.4 57 17.7 27.0 N | 0 46.0 54.4 N | 0 31.1 32.1 56.9
9/3/26 - 0330 31.5 13.5 56 17.4 27.0 N | 2 46.3 55.1 N | 0 31.4 32.1 56.9
9/3/26 - 0315 31.6 13.6 57 18.0 27.3 N | 6 47.8 56.3 N | 0 31.5 32.1 56.9
9/3/26 - 0300 31.5 13.4 61 19.8 27.6 N | 4 47.7 56.9 NNE | 16 31.5 32.1 56.9
9/3/26 - 0245 31.6 13.5 64 20.8 27.9 N | 2 47.0 56.6 N | 0 31.5 32.1 56.6
9/3/26 - 0230 31.8 13.9 62 20.4 28.0 N | 5 46.1 56.2 N | 0 31.5 32.1 56.2
9/3/26 - 0215 31.9 14.4 60 19.8 27.9 N | 10 44.4 53.5 N | 0 31.5 32.1 53.5
9/3/26 - 0200 31.9 14.6 63 20.6 28.1 NNW | 333 42.2 51.7 N | 0 31.5 32.1 51.7
9/3/26 - 0145 31.8 14.8 66 21.6 28.3 SW | 236 40.1 50.2 SW | 235 31.5 32.0 50.9
9/3/26 - 0130 31.7 14.4 70 23.0 28.6 N | 4 41.3 50.8 N | 0 31.5 31.8 50.9
9/3/26 - 0115 31.6 14.3 73 23.9 28.9 N | 10 41.7 50.9 N | 0 31.5 31.7 50.9
9/3/26 - 0100 31.5 14.0 77 25.0 29.1 N | 360 42.5 52.4 N | 0 25.8 40.3 57.7
9/3/26 - 0045 31.6 14.6 78 25.4 29.3 N | 1 40.2 48.1 N | 0 25.8 40.3 57.7
9/3/26 - 0030 31.9 15.7 76 25.1 29.4 SW | 228 34.6 44.0 SW | 219 25.8 40.3 57.7
9/3/26 - 0015 32.1 17.2 75 25.0 29.5 SW | 232 28.5 36.8 SW | 232 25.8 40.3 57.7
9/3/26 - 0000 32.0 18.0 75 25.0 29.5 SW | 232 25.2 31.7 SW | 232 25.8 40.3 57.7
9/2/26 - 2345 31.9 18.3 76 25.2 29.5 SW | 231 23.4 29.4 SW | 231 25.8 40.3 57.7
9/2/26 - 2330 31.6 18.0 80 26.3 29.6 SW | 231 23.4 28.8 SW | 231 25.8 40.3 57.7
9/2/26 - 2315 31.6 18.1 83 27.0 29.9 SW | 231 22.2 28.1 SW | 231 25.8 40.3 57.7
9/2/26 - 2300 31.6 18.3 84 27.4 30.0 SW | 230 21.8 27.6 SW | 230 25.8 40.3 57.7
9/2/26 - 2245 31.5 18.1 85 27.5 29.9 SW | 230 22.0 27.2 SW | 230 25.8 40.3 57.7
9/2/26 - 2230 31.5 18.1 85 27.4 29.9 SW | 229 22.1 26.9 SW | 229 25.8 40.3 57.7
9/2/26 - 2215 31.3 17.9 86 27.8 29.9 SW | 228 21.7 27.1 SW | 228 25.8 40.3 57.7
9/2/26 - 2200 31.1 17.5 88 27.9 29.9 SW | 227 22.5 28.0 SW | 227 25.8 40.3 57.7
9/2/26 - 2145 31.3 17.4 88 28.2 30.1 SW | 226 23.5 29.4 SW | 225 25.8 40.3 57.7
9/2/26 - 2130 31.1 17.0 90 28.6 30.1 SW | 225 24.2 30.1 SW | 224 25.8 40.3 57.7
9/2/26 - 2115 31.0 16.8 94 29.4 30.3 SW | 224 23.5 31.2 SW | 224 25.8 40.3 57.7
9/2/26 - 2100 31.1 18.2 96 30.0 30.6 SW | 224 19.2 25.3 SW | 224 25.8 40.3 57.7
9/2/26 - 2045 31.0 17.7 96 30.0 30.6 SW | 225 20.4 27.4 SW | 220 25.8 40.3 57.7
9/2/26 - 2030 31.6 18.0 92 29.6 30.8 SW | 222 22.6 29.4 SW | 222 25.8 40.3 57.7
9/2/26 - 2015 31.8 17.8 90 29.4 30.8 SW | 225 23.6 32.2 SW | 226 25.8 40.3 57.7
9/2/26 - 2000 32.3 17.8 89 29.5 31.2 SW | 226 27.2 34.7 SW | 228 25.8 40.3 57.7
9/2/26 - 1945 32.8 18.2 86 29.2 31.4 SW | 226 28.8 36.0 SW | 226 25.8 40.3 57.7
9/2/26 - 1930 33.5 19.1 83 28.9 31.7 SW | 229 29.0 37.2 SW | 231 25.8 40.3 57.7
9/2/26 - 1915 34.5 20.2 77 28.1 32.0 SW | 228 30.1 38.3 SW | 235 25.8 40.3 57.7
9/2/26 - 1900 35.0 20.8 73 27.2 32.1 SW | 227 30.8 39.0 SW | 231 25.8 40.3 57.7
9/2/26 - 1845 36.1 22.3 68 26.6 32.5 SW | 227 30.9 39.9 SW | 218 25.8 40.3 57.7
9/2/26 - 1830 36.6 23.4 65 26.1 32.7 SW | 224 28.3 37.6 SW | 224 25.8 40.3 57.7
9/2/26 - 1815 36.9 23.4 64 26.0 32.8 SW | 227 30.8 39.2 SW | 234 25.8 40.3 57.7
9/2/26 - 1800 37.5 24.6 63 26.0 33.2 SW | 222 27.0 37.2 WSW | 238 25.8 40.3 57.7
9/2/26 - 1745 38.1 25.5 61 25.8 33.5 SW | 231 27.1 37.3 SW | 232 25.8 40.3 57.7
9/2/26 - 1730 38.4 25.8 61 26.1 33.7 SW | 217 28.5 37.0 SW | 217 25.8 40.3 57.7
9/2/26 - 1715 38.8 26.1 59 25.5 33.8 SW | 226 29.2 38.8 WSW | 238 25.8 40.3 57.7
9/2/26 - 1700 39.1 26.4 57 25.3 33.9 SW | 225 28.8 41.5 SW | 216 25.8 40.3 57.7
9/2/26 - 1645 39.5 26.6 56 25.2 34.1 SW | 226 31.0 43.6 SW | 222 25.8 40.3 57.7
9/2/26 - 1630 39.3 27.0 55 24.7 33.8 SW | 228 26.1 39.5 SW | 219 25.8 40.3 57.7
9/2/26 - 1615 39.5 27.2 56 25.0 34.0 SW | 226 26.5 40.1 SW | 227 25.8 40.3 57.7
9/2/26 - 1600 39.7 28.2 58 26.1 34.5 SW | 232 20.9 37.2 SW | 225 25.8 40.3 57.7
9/2/26 - 1545 39.4 27.3 61 27.0 34.6 SW | 230 24.6 38.6 SW | 231 25.8 40.3 57.7
9/2/26 - 1530 39.7 27.3 62 27.6 35.0 SW | 222 26.4 43.1 SW | 227 25.8 40.3 57.7
9/2/26 - 1515 39.6 26.9 62 27.8 35.0 SW | 216 29.0 43.1 S | 191 25.8 40.3 57.7
9/2/26 - 1500 39.6 26.6 61 27.3 34.8 SW | 228 31.0 44.8 SW | 228 25.8 40.3 57.7
9/2/26 - 1445 39.9 26.9 62 27.7 35.1 SW | 223 30.6 46.8 SW | 216 25.8 40.3 57.7
9/2/26 - 1430 39.7 26.8 62 27.6 35.0 SW | 222 30.0 45.2 SW | 223 25.8 40.3 57.7
9/2/26 - 1415 39.2 26.2 62 27.4 34.6 SW | 224 29.2 44.7 SW | 235 25.8 39.8 57.7
9/2/26 - 1400 39.3 26.4 64 28.0 34.9 SW | 222 30.0 44.1 SSW | 200 25.8 39.8 57.7
9/2/26 - 1345 38.7 25.3 64 27.7 34.5 SW | 223 29.9 47.9 SW | 217 25.8 39.4 57.7
9/2/26 - 1330 38.9 25.8 63 27.4 34.5 SW | 221 32.0 43.1 SSW | 211 25.8 39.4 57.7
9/2/26 - 1315 38.8 25.4 63 27.1 34.3 SW | 221 31.7 46.0 SW | 220 25.8 39.4 57.7
9/2/26 - 1300 38.9 26.1 62 26.9 34.3 SW | 225 26.0 44.6 SSW | 199 25.8 39.4 57.7
9/2/26 - 1245 38.4 25.4 62 26.7 33.9 SW | 221 26.9 44.0 SW | 226 25.8 39.4 57.7
9/2/26 - 1230 38.2 25.5 62 26.5 33.8 SW | 224 26.3 40.9 SW | 225 25.8 38.8 57.7
9/2/26 - 1215 38.1 24.7 62 26.3 33.6 SW | 228 29.6 44.8 SW | 218 25.8 38.8 57.7
9/2/26 - 1200 38.2 24.6 62 26.1 33.6 SW | 229 29.1 47.6 SSW | 207 25.8 38.8 57.7
9/2/26 - 1145 38.3 25.6 61 26.0 33.7 SW | 230 26.1 40.4 SW | 233 25.8 38.8 57.7
9/2/26 - 1130 37.3 24.2 61 25.2 32.8 SW | 227 27.0 39.4 SW | 214 25.8 38.4 57.7
9/2/26 - 1115 36.6 23.6 62 24.8 32.3 SW | 230 25.2 38.0 SW | 227 25.8 37.0 57.7
9/2/26 - 1100 36.3 23.3 63 24.8 32.1 SW | 230 25.5 35.4 SW | 226 25.8 36.4 57.7
9/2/26 - 1045 35.9 22.7 63 24.6 31.8 SW | 230 26.0 35.4 SW | 225 25.8 36.2 57.7
9/2/26 - 1030 35.0 21.0 65 24.2 31.1 SW | 227 27.6 38.5 SW | 222 25.8 35.6 57.7
9/2/26 - 1015 33.7 19.0 66 23.6 30.1 SW | 222 30.4 39.5 SW | 214 25.8 34.3 57.7
9/2/26 - 1000 33.2 18.6 66 23.2 29.7 SW | 221 28.6 38.0 SW | 222 25.8 34.0 57.7
9/2/26 - 0945 31.7 17.1 68 22.2 28.5 SW | 220 27.1 34.4 SW | 221 25.8 32.5 57.7
9/2/26 - 0930 30.9 15.9 68 21.6 27.7 SW | 220 27.2 34.7 SW | 219 25.8 31.1 57.7
9/2/26 - 0915 30.1 14.3 68 21.0 27.0 SW | 222 29.3 37.8 SW | 220 25.8 30.5 57.7
9/2/26 - 0900 29.0 13.0 69 20.1 26.1 SW | 225 28.3 37.6 SW | 224 25.8 29.9 57.7
9/2/26 - 0845 29.1 13.1 68 19.9 26.1 SW | 226 29.4 36.4 SW | 222 25.8 29.9 57.7
9/2/26 - 0830 29.5 13.4 67 19.8 26.3 SW | 227 29.6 38.4 SW | 228 25.8 29.9 57.7
9/2/26 - 0815 28.8 12.0 68 19.4 25.7 SW | 225 31.1 41.1 SW | 221 25.8 29.7 57.7
9/2/26 - 0800 28.6 11.4 68 19.4 25.6 SW | 225 33.3 42.1 SW | 229 25.8 29.7 57.7
9/2/26 - 0745 27.5 9.5 71 19.2 24.8 SW | 226 34.7 45.7 SW | 227 25.8 29.7 57.7
9/2/26 - 0730 27.2 9.3 72 19.5 24.7 SW | 226 34.6 43.4 SW | 224 25.8 29.7 57.7
9/2/26 - 0715 26.9 8.7 74 19.6 24.5 SW | 226 36.2 44.4 SW | 225 25.8 29.7 57.7
9/2/26 - 0700 26.7 8.5 74 19.7 24.4 SW | 226 34.5 44.8 SW | 230 25.8 29.7 57.7
9/2/26 - 0645 26.1 7.7 79 20.4 24.2 SW | 225 34.3 44.8 SW | 231 25.8 29.7 57.7
9/2/26 - 0630 26.0 7.2 81 20.9 24.2 SW | 225 36.0 46.1 SW | 224 25.8 29.7 57.7
9/2/26 - 0615 26.2 7.2 80 20.9 24.4 SW | 225 37.9 47.6 SW | 214 26.0 29.7 57.7
9/2/26 - 0600 26.3 7.3 80 21.0 24.5 SW | 223 38.4 47.4 SW | 228 26.0 29.7 57.7
9/2/26 - 0545 26.2 7.0 83 21.7 24.6 SW | 220 39.1 49.4 ENE | 60 26.0 29.7 57.7
9/2/26 - 0530 26.5 7.4 85 22.5 25.1 SW | 225 38.4 49.9 SW | 229 26.3 29.7 57.7
9/2/26 - 0515 26.6 7.6 88 23.4 25.4 SW | 222 39.3 49.2 SW | 231 26.5 29.7 57.7
9/2/26 - 0500 26.8 7.7 88 23.7 25.6 SW | 222 39.1 50.5 N | 0 26.5 29.7 57.7
9/2/26 - 0445 26.8 7.6 88 23.7 25.7 SW | 223 40.5 51.7 E | 89 26.8 29.7 57.7
9/2/26 - 0430 26.9 7.7 87 23.7 25.7 SW | 227 40.9 52.5 SW | 226 26.8 29.7 57.7
9/2/26 - 0415 27.5 8.6 82 22.9 25.9 SW | 223 40.6 50.9 N | 0 27.1 29.7 57.7
9/2/26 - 0400 27.9 8.9 79 22.2 25.9 WSW | 256 40.5 53.3 N | 0 27.5 29.7 57.7
9/2/26 - 0345 28.2 9.5 77 21.8 26.0 WSW | 239 40.2 51.9 NE | 47 27.7 29.7 57.7
9/2/26 - 0330 28.0 9.3 79 22.3 26.0 SSW | 213 40.1 51.1 ENE | 60 27.7 29.7 57.7
9/2/26 - 0315 28.3 10.1 79 22.5 26.3 SW | 224 37.5 48.8 SW | 225 27.8 29.7 57.7
9/2/26 - 0300 28.3 10.0 79 22.6 26.3 SW | 223 37.5 50.8 ESE | 119 28.2 29.7 57.7
9/2/26 - 0245 28.6 10.4 77 22.3 26.4 WSW | 249 38.3 49.2 N | 0 28.3 29.7 57.7
9/2/26 - 0230 29.0 10.8 74 21.6 26.5 SW | 233 39.2 52.2 NNE | 16 28.8 29.7 57.7
9/2/26 - 0215 29.2 10.5 70 20.7 26.4 NNE | 22 42.8 56.6 N | 1 29.0 29.7 57.7
9/2/26 - 0200 29.2 10.3 70 20.6 26.3 NNE | 23 44.7 56.2 NNE | 25 29.0 29.7 57.7
9/2/26 - 0145 29.4 10.6 68 20.0 26.4 NNE | 25 44.8 57.7 ENE | 68 29.1 29.7 57.7
9/2/26 - 0130 29.4 10.6 68 20.2 26.4 NNE | 22 45.1 56.8 N | 0 29.1 29.7 57.2
Max 42.8 31.2 100 34.3 37.2 - 47.8 57.7 - 31.5 43.1 57.7
Avg 34.0 18.8 73 25.6 30.9 - 33.5 44.1 - - - -
Min 26.0 7.0 47 17.4 24.2 - 19.2 25.3 - 25.8 29.7 46.3